• Join FlightAware (Why Join?)
  • Login
  • US Flag 
02:44PM EDT


 

Airport Tracker/Info


-or-


 

Live Flight TrackerFlight Track Log ✈ UAL1609 ✈ 17-Jul-2013 ✈ KSNA - KORD

Flight Track Log - Related Links

Times and Time Zones

All times are in EDT time to prevent confusion due to time zone crossing. See the UAL1609 flight status page for this flight to view local times or setup timezone preferences in your user account.

Time Position Orientation Groundspeed Altitude Reporting Facility
EDT Latitude Longitude Course Direction KTS MPH feet Rate Location/Type
04:55PM 33.6667 -117.8833 90° East 149 171 1,000  Level Southern California TRACON
04:56PM 33.6167 -117.9000 196° South 166 191 2,900 1,380 Climbing Southern California TRACON
04:57PM 33.5806 -117.8961 175° South 169 194 3,700 1,320 Climbing Los Angeles Center
04:58PM 33.4859 -117.6514 54° Northeast  Level FlightAware Approximate
04:58PM 33.5303 -117.8317 133° Southeast 255 293 5,500  Level Los Angeles Center
04:59PM 33.5443 -117.5265 66° East  Level FlightAware Approximate
04:59PM 33.5472 -117.7408 77° East 280 322 7,700  Level Los Angeles Center
05:00PM 33.5833 -117.3922 90° East  Level FlightAware Approximate
05:00PM 33.5622 -117.6433 80° East 293 337 10,200  Level Los Angeles Center
05:01PM 33.5772 -117.5342 81° East 323 372 12,300 2,220 Climbing Los Angeles Center
05:02PM 33.5867 -117.4153 85° East 355 409 14,900 2,700 Climbing Los Angeles Center
05:03PM 33.5911 -117.2936 87° East 366 421 18,000 2,760 Climbing Los Angeles Center
05:04PM 33.5956 -117.1442 88° East 375 432 20,700 2,220 Climbing Los Angeles Center
05:05PM 33.6008 -117.0106 87° East 397 457 22,600 1,800 Climbing Los Angeles Center
05:06PM 33.6289 -116.8753 76° East 432 497 24,500 1,740 Climbing Los Angeles Center
05:07PM 33.6833 -116.7583 61° Northeast 429 494 26,300 1,020 Climbing Los Angeles Center
05:08PM 33.7722 -116.5808 59° Northeast 443 510 26,900 240 Climbing Los Angeles Center
05:09PM 33.8650 -116.4850 41° Northeast 443 510 26,900  Level Los Angeles Center
05:11PM 33.9586 -116.3875 41° Northeast 443 510 26,900 720 Level Los Angeles Center
05:12PM 34.0525 -116.2911 40° Northeast 444 511 28,500 1,500 Climbing Los Angeles Center
05:13PM 34.1525 -116.1864 41° Northeast 452 520 30,000 1,440 Climbing Los Angeles Center
05:14PM 34.2503 -116.0844 41° Northeast 462 532 31,500 1,500 Climbing Los Angeles Center
05:15PM 34.3461 -115.9828 41° Northeast 461 531 33,100 1,500 Climbing Los Angeles Center
05:16PM 34.4553 -115.8442 46° Northeast 463 533 34,600 1,500 Climbing Los Angeles Center
05:17PM 34.5425 -115.7333 46° Northeast 468 539 36,200 1,140 Climbing Los Angeles Center
05:18PM 34.6292 -115.6250 46° Northeast 453 521 37,000 360 Climbing Los Angeles Center
05:19PM 34.7192 -115.5106 46° Northeast 453 521 37,000  Level Los Angeles Center
05:20PM 34.8072 -115.3989 46° Northeast 456 525 37,000  Level Los Angeles Center
05:21PM 34.8942 -115.2892 46° Northeast 453 521 37,000  Level Los Angeles Center
05:22PM 34.9989 -115.1556 46° Northeast 455 524 37,000  Level Los Angeles Center
05:23PM 35.0772 -115.0383 51° Northeast 453 521 37,000  Level Los Angeles Center
05:24PM 35.1417 -114.9086 59° Northeast 447 514 37,000  Level Los Angeles Center
05:25PM 35.2067 -114.7786 59° Northeast 449 517 37,000  Level Los Angeles Center
05:26PM 35.2706 -114.6483 59° Northeast 448 516 37,000  Level Los Angeles Center
05:27PM 35.3333 -114.5208 59° Northeast 441 507 37,000  Level Los Angeles Center
05:28PM 35.4092 -114.3650 59° Northeast 444 511 37,000  Level Los Angeles Center
05:29PM 35.4647 -114.2517 59° Northeast 444 511 37,000  Level Los Angeles Center
05:30PM 35.5289 -114.1200 59° Northeast 448 516 37,000  Level Los Angeles Center
05:31PM 35.6047 -113.9664 59° Northeast 444 511 37,000  Level Los Angeles Center
05:32PM 35.6664 -113.8364 60° Northeast 442 509 37,000  Level Los Angeles Center
05:33PM 35.7356 -113.6925 59° Northeast 437 503 37,000  Level Los Angeles Center
05:34PM 35.7878 -113.5806 60° Northeast 434 499 37,000  Level Los Angeles Center
05:35PM 35.8517 -113.4506 59° Northeast 441 507 37,000  Level Los Angeles Center
05:36PM 35.9253 -113.2947 60° Northeast 439 505 37,000  Level Los Angeles Center
05:37PM 35.9853 -113.1653 60° Northeast 434 499 37,000  Level Los Angeles Center
05:38PM 36.0450 -113.0375 60° Northeast 432 497 37,000  Level Los Angeles Center
05:39PM 36.1056 -112.9078 60° Northeast 435 501 37,000  Level Los Angeles Center
05:41PM 36.1656 -112.7778 60° Northeast 436 502 37,000  Level Los Angeles Center
05:42PM 36.2375 -112.6231 60° Northeast 434 499 37,000  Level Los Angeles Center
05:43PM 36.2972 -112.4942 60° Northeast 434 499 37,000  Level Los Angeles Center
05:44PM 36.3572 -112.3672 60° Northeast 431 496 37,000  Level Los Angeles Center
05:45PM 36.4156 -112.2378 61° Northeast 431 496 37,000  Level Los Angeles Center
05:46PM 36.4744 -112.1092 60° Northeast 431 496 37,000  Level Los Angeles Center
05:47PM 36.5325 -111.9833 60° Northeast 425 489 37,000  Level Los Angeles Center
05:48PM 36.6008 -111.8308 61° Northeast 423 487 37,000  Level Los Angeles Center
05:49PM 36.6589 -111.7042 60° Northeast 423 487 37,000  Level Los Angeles Center
05:50PM 36.7158 -111.5781 61° Northeast 422 486 37,000  Level Los Angeles Center
05:51PM 36.7725 -111.4511 61° Northeast 421 484 37,000  Level Los Angeles Center
05:52PM 36.8394 -111.3003 61° Northeast 420 483 37,000  Level Denver Center
05:53PM 36.8972 -111.1717 61° Northeast 424 488 37,000  Level Denver Center
05:54PM 36.9539 -111.0422 61° Northeast 425 489 37,000  Level Denver Center
05:55PM 37.0211 -110.8894 61° Northeast 421 484 37,000  Level Denver Center
05:56PM 37.0783 -110.7619 61° Northeast 421 484 37,000  Level Denver Center
05:57PM 37.1333 -110.6336 62° Northeast 421 484 37,000  Level Denver Center
05:58PM 37.1886 -110.5078 61° Northeast 415 478 37,000  Level Denver Center
05:59PM 37.2550 -110.3556 61° Northeast 416 479 37,000  Level Denver Center
06:01PM 37.3097 -110.2294 61° Northeast 413 475 37,000  Level Denver Center
06:02PM 37.3761 -110.0767 61° Northeast 413 475 37,000  Level Denver Center
06:03PM 37.4278 -109.9553 62° Northeast 411 473 37,000  Level Denver Center
06:04PM 37.4883 -109.8128 62° Northeast 412 474 37,000  Level Denver Center
06:05PM 37.5400 -109.6906 62° Northeast 412 474 37,000  Level Denver Center
06:06PM 37.6003 -109.5481 62° Northeast 412 474 37,000  Level Denver Center
06:07PM 37.6522 -109.4258 62° Northeast 412 474 37,000  Level Denver Center
06:08PM 37.7031 -109.3044 62° Northeast 411 473 37,000  Level Denver Center
06:09PM 37.7633 -109.1614 62° Northeast 413 475 37,000  Level Denver Center
06:10PM 37.8136 -109.0397 62° Northeast 408 470 37,000  Level Denver Center
06:11PM 37.8722 -108.8956 63° Northeast 411 473 37,000  Level Denver Center
06:12PM 37.9231 -108.7747 62° Northeast 406 467 37,000  Level Denver Center
06:13PM 37.9817 -108.6342 62° Northeast 405 466 37,000  Level Denver Center
06:14PM 38.0300 -108.5122 63° Northeast 404 465 37,000  Level Denver Center
06:15PM 38.0836 -108.3803 63° Northeast 409 471 37,000  Level Denver Center
06:16PM 38.1386 -108.2389 64° Northeast 403 464 37,000  Level Denver Center
06:17PM 38.1769 -108.1108 69° East 406 467 37,000  Level Denver Center
06:18PM 38.2222 -107.9619 69° East 405 466 37,000  Level Denver Center
06:19PM 38.2594 -107.8331 70° East 406 467 37,000  Level Denver Center
06:20PM 38.3050 -107.6847 69° East 405 466 37,000  Level Denver Center
06:21PM 38.3347 -107.5519 74° East 406 467 37,000  Level Denver Center
06:22PM 38.3708 -107.3961 73° East 411 473 37,000  Level Denver Center
06:23PM 38.4006 -107.2650 74° East 405 466 37,000  Level Denver Center
06:24PM 38.4342 -107.1175 74° East 405 466 37,000  Level Denver Center
06:25PM 38.4658 -106.9781 74° East 410 472 37,000  Level Denver Center
06:26PM 38.4981 -106.8422 73° East 403 464 37,000  Level Denver Center
06:27PM 38.5311 -106.7042 73° East 407 468 37,000  Level Denver Center
06:28PM 38.5783 -106.5747 65° Northeast 402 463 37,000  Level Denver Center
06:29PM 38.6392 -106.4228 63° Northeast 402 463 37,000  Level Denver Center
06:31PM 38.6903 -106.2939 63° Northeast 406 467 37,000  Level Denver Center
06:32PM 38.7472 -106.1517 63° Northeast 408 470 37,000  Level Denver Center
06:33PM 38.7981 -106.0228 63° Northeast 408 470 37,000  Level Denver Center
06:34PM 38.8494 -105.8911 63° Northeast 411 473 37,000  Level Denver Center
06:35PM 38.9011 -105.7614 63° Northeast 411 473 37,000  Level Denver Center
06:36PM 38.9625 -105.6028 63° Northeast 414 476 37,000  Level Denver Center
06:37PM 39.0144 -105.4708 63° Northeast 415 478 37,000  Level Denver Center
06:38PM 39.0758 -105.3122 63° Northeast 416 479 37,000  Level Denver Center
06:39PM 39.1267 -105.1811 63° Northeast 412 474 37,000  Level Denver Center
06:40PM 39.1789 -105.0489 63° Northeast 414 476 37,000  Level Denver Center
06:41PM 39.2292 -104.9172 64° Northeast 412 474 37,000  Level Denver Center
06:42PM 39.2786 -104.7850 64° Northeast 413 475 37,000  Level Denver Center
06:43PM 39.3389 -104.6261 64° Northeast 415 478 37,000  Level Denver Center
06:44PM 39.3886 -104.4933 64° Northeast 417 480 37,000  Level Denver Center
06:45PM 39.4386 -104.3603 64° Northeast 417 480 37,000  Level Denver Center
06:46PM 39.4881 -104.2269 64° Northeast 416 479 37,000  Level Denver Center
06:47PM 39.5381 -104.0939 64° Northeast 415 478 37,000  Level Denver Center
06:48PM 39.5986 -103.9328 64° Northeast 415 478 37,000  Level Denver Center
06:49PM 39.6475 -103.7981 65° Northeast 414 476 37,000  Level Denver Center
06:50PM 39.6969 -103.6656 64° Northeast 407 468 37,000  Level Denver Center
06:51PM 39.7469 -103.5314 64° Northeast 413 475 37,000  Level Denver Center
06:52PM 39.7953 -103.3958 65° Northeast 414 476 37,000  Level Denver Center
06:53PM 39.8447 -103.2611 64° Northeast 414 476 37,000  Level Denver Center
06:54PM 39.8933 -103.1258 65° Northeast 414 476 37,000  Level Denver Center
06:56PM 39.9528 -102.9653 64° Northeast 413 475 37,000  Level Denver Center
06:57PM 40.0000 -102.8303 65° Northeast 410 472 37,000  Level Denver Center
06:58PM 40.0486 -102.6906 66° East 415 478 37,000  Level Denver Center
06:59PM 40.1022 -102.5403 65° Northeast 412 474 37,000  Level Denver Center
07:00PM 40.1489 -102.4100 65° Northeast 412 474 37,000  Level Denver Center
07:01PM 40.2003 -102.2564 66° East 413 475 37,000  Level Denver Center
07:02PM 40.2456 -102.1253 66° East 414 476 37,000  Level Denver Center
07:03PM 40.2919 -101.9956 65° Northeast 412 474 37,000  Level Denver Center
07:04PM 40.3456 -101.8428 65° Northeast 414 476 37,000  Level Denver Center
07:05PM 40.3906 -101.7106 66° East 415 478 37,000  Level Denver Center
07:06PM 40.4419 -101.5569 66° East 413 475 37,000  Level Denver Center
07:07PM 40.4869 -101.4236 66° East 417 480 37,000  Level Denver Center
07:08PM 40.5400 -101.2700 66° East 415 478 37,000  Level Denver Center
07:09PM 40.5839 -101.1383 66° East 413 475 37,000  Level Denver Center
07:10PM 40.6350 -100.9844 66° East 413 475 37,000  Level Denver Center
07:11PM 40.6786 -100.8528 66° East 413 475 37,000  Level Denver Center
07:12PM 40.7264 -100.6989 68° East 414 476 37,000  Level Denver Center
07:13PM 40.7725 -100.5669 65° Northeast 417 480 37,000  Level Denver Center
07:14PM 40.8242 -100.4169 65° Northeast 412 474 37,000  Level Denver Center
07:15PM 40.8667 -100.2853 67° East 408 470 37,000  Level Denver Center
07:16PM 40.9172 -100.1314 66° East 409 471 37,000  Level Denver Center
07:17PM 40.9606 -99.9986 67° East 411 473 37,000  Level Denver Center
07:18PM 41.0097 -99.8444 67° East 410 472 37,000  Level Denver Center
07:19PM 41.0536 -99.7078 67° East 410 472 37,000  Level Denver Center
07:20PM 41.1017 -99.5561 67° East 410 472 37,000  Level Denver Center
07:21PM 41.1428 -99.4297 67° East 409 471 37,000  Level Denver Center
07:22PM 41.1953 -99.2611 67° East 411 473 37,000  Level Denver Center
07:23PM 41.2392 -99.1211 67° East 409 471 37,000  Level Denver Center
07:24PM 41.2844 -98.9767 67° East 412 474 37,000  Level Denver Center
07:25PM 41.3300 -98.8339 67° East 415 478 37,000  Level Denver Center
07:27PM 41.3736 -98.6894 68° East 414 476 37,000  Level Denver Center
07:27PM 41.3839 -98.6483 72° East 411 473 37,000  Level Minneapolis Center
07:28PM 41.4419 -98.4600 68° East 419 482 37,000  Level Minneapolis Center
07:29PM 41.4983 -98.2767 68° East 440 506 37,000  Level Minneapolis Center
07:30PM 41.5486 -98.1119 68° East 441 507 37,000  Level Minneapolis Center
07:31PM 41.5856 -97.9903 68° East 443 510 37,000  Level Minneapolis Center
07:33PM 41.6381 -97.8103 69° East 434 499 37,000  Level Minneapolis Center
07:34PM 41.6819 -97.6672 68° East 421 484 37,000  Level Minneapolis Center
07:35PM 41.7317 -97.4953 69° East 415 478 37,000  Level Minneapolis Center
07:36PM 41.7719 -97.3522 69° East 412 474 37,000  Level Minneapolis Center
07:37PM 41.8153 -97.2083 68° East 414 476 37,000  Level Minneapolis Center
07:38PM 41.8569 -97.0639 69° East 415 478 37,000  Level Minneapolis Center
07:39PM 41.8975 -96.9217 69° East 410 472 37,000  Level Minneapolis Center
07:40PM 41.9386 -96.7761 69° East 413 475 37,000  Level Minneapolis Center
07:41PM 41.9803 -96.6314 69° East 414 476 37,000  Level Minneapolis Center
07:42PM 42.0286 -96.4575 69° East 414 476 37,000  Level Minneapolis Center
07:43PM 42.0694 -96.3119 69° East 413 475 37,000  Level Minneapolis Center
07:44PM 42.1103 -96.1642 70° East 420 483 37,000  Level Minneapolis Center
07:45PM 42.1514 -96.0183 69° East 417 480 37,000  Level Minneapolis Center
07:46PM 42.1922 -95.8708 69° East 418 481 37,000  Level Minneapolis Center
07:47PM 42.2322 -95.7222 70° East 420 483 37,000  Level Minneapolis Center
07:48PM 42.2731 -95.5733 70° East 421 484 37,000  Level Minneapolis Center
07:49PM 42.3206 -95.3947 70° East 420 483 37,000  Level Minneapolis Center
07:50PM 42.3692 -95.2161 70° East 421 484 37,000  Level Minneapolis Center
07:51PM 42.4000 -95.0969 71° East 420 483 37,000  Level Minneapolis Center
07:52PM 42.4481 -94.9197 70° East 418 481 37,000  Level Minneapolis Center
07:53PM 42.4861 -94.7719 71° East 416 479 37,000  Level Minneapolis Center
07:54PM 42.5253 -94.6256 70° East 414 476 37,000  Level Minneapolis Center
07:55PM 42.5658 -94.4614 71° East 414 476 37,000  Level Minneapolis Center
07:57PM 42.6031 -94.3158 71° East 414 476 37,000  Level Minneapolis Center
07:58PM 42.6061 -94.1600 88° East 419 482 37,000  Level Minneapolis Center
07:59PM 42.5997 -93.9414 92° East 420 483 37,000  Level Minneapolis Center
08:00PM 42.5950 -93.8161 93° East 420 483 37,000  Level Minneapolis Center
08:01PM 42.5889 -93.6269 92° East 423 487 37,000  Level Minneapolis Center
08:02PM 42.5833 -93.4694 93° East 423 487 37,000  Level Minneapolis Center
08:03PM 42.5764 -93.2786 93° East 425 489 37,000  Level Minneapolis Center
08:04PM 42.5706 -93.1200 93° East 426 490 37,000  Level Minneapolis Center
08:05PM 42.5639 -92.9908 94° East 429 494 37,000 -240 Level Chicago Center
08:06PM 42.5578 -92.8317 93° East 428 493 36,600 -540 Descending Chicago Center
08:07PM 42.5494 -92.6403 93° East 431 496 36,000 -300 Descending Chicago Center
08:08PM 42.5431 -92.4819 93° East 427 491 36,000  Level Chicago Center
08:09PM 42.5350 -92.3242 94° East 427 491 36,000  Level Chicago Center
08:10PM 42.5281 -92.1653 93° East 427 491 36,000 -240 Level Chicago Center
08:11PM 42.5233 -91.9753 92° East 426 490 35,600 -600 Descending Chicago Center
08:12PM 42.5244 -91.8153 89° East 432 497 34,800 -840 Descending Chicago Center
08:13PM 42.5250 -91.6567 90° East 433 498 33,900 -960 Descending Chicago Center
08:14PM 42.5258 -91.4972 90° East 432 497 32,900 -1,080 Descending Chicago Center
08:15PM 42.5269 -91.3131 89° East 415 478 31,700 -1,080 Descending Chicago Center
08:16PM 42.5336 -91.1622 87° East 421 484 30,700 -900 Descending Chicago Center
08:17PM 42.6103 -91.0556 46° Northeast 407 468 29,900 -900 Descending Chicago Center
08:18PM 42.6844 -90.9444 48° Northeast 417 480 28,900 -1,020 Descending Chicago Center
08:19PM 42.6553 -90.7514 102° East 450 518 27,900 -960 Descending Chicago Center
08:20PM 42.6317 -90.5842 101° East 455 524 27,000 -960 Descending Chicago Center
08:21PM 42.6083 -90.4172 101° East 456 525 26,000 -900 Descending Chicago Center
08:22PM 42.5850 -90.2483 101° East 460 529 25,200 -1,020 Descending Chicago Center
08:23PM 42.5619 -90.0842 101° East 450 518 24,000 -1,200 Descending Chicago Center
08:25PM 42.5319 -89.8836 101° East 441 507 22,800 -1,080 Descending Chicago Center
08:26PM 42.5164 -89.7244 98° East 428 493 21,800 -1,140 Descending Chicago Center
08:27PM 42.5147 -89.5633 91° East 428 493 20,500 -1,380 Descending Chicago Center
08:28PM 42.5119 -89.4086 91° East 416 479 19,000 -1,260 Descending Chicago Center
08:29PM 42.5092 -89.2514 91° East 417 480 18,000 -1,020 Descending Chicago Center
08:30PM 42.5067 -89.0714 91° East 412 474 17,000 -1,440 Descending Chicago Center
08:31PM 42.5011 -88.9228 93° East 401 461 15,100 -1,620 Descending Chicago Center
08:32PM 42.4619 -88.7889 112° Southeast 380 437 13,700 -1,320 Descending Chicago Center
08:33PM 42.4228 -88.6600 112° Southeast 373 429 12,400 -1,560 Descending Chicago Center
08:34PM 42.3842 -88.5339 112° Southeast 368 423 10,500 -1,200 Descending Chicago Center
08:35PM 42.3428 -88.3933 112° Southeast 346 398 10,000 -300 Descending Chicago Center
08:36PM 42.2867 -88.3008 129° Southeast 344 396 9,900 -540 Descending Chicago Center
08:37PM 42.2325 -88.2097 129° Southeast 319 367 8,900 -960 Descending Chicago Center
08:38PM 42.1744 -88.1344 136° Southeast 298 343 8,000 -480 Descending Chicago Center
08:39PM 42.0867 -88.0808 156° South 289 333 8,000  Level Chicago Center
08:40PM 42.0333 -88.0333 147° Southeast 291 335 8,000 -120 Level Chicago TRACON
08:41PM 41.9667 -87.9833 151° Southeast 269 310 7,800 -540 Descending Chicago TRACON
08:42PM 41.9167 -87.9167 135° Southeast 253 291 7,000 -720 Descending Chicago TRACON
08:43PM 41.9000 -87.8500 109° East 211 243 6,500 -1,020 Descending Chicago TRACON
08:44PM 41.9000 -87.7667 90° East 200 230 5,000 -1,440 Descending Chicago TRACON
08:45PM 41.9167 -87.7000 71° East 210 242 3,500 -1,200 Descending Chicago TRACON
08:46PM 41.9500 -87.7500 312° West 179 206 2,700 -840 Descending Chicago TRACON